sensor_id;sensor_type;location;lat;lon;timestamp;P1;durP1;ratioP1;P2;durP2;ratioP2
20557;SDS011;10437;48.156;11.530;2022-10-16T00:00:31;6.45;;;1.80;;
20557;SDS011;10437;48.156;11.530;2022-10-16T00:02:58;5.85;;;1.80;;
20557;SDS011;10437;48.156;11.530;2022-10-16T00:05:25;6.30;;;2.00;;
20557;SDS011;10437;48.156;11.530;2022-10-16T00:07:54;4.07;;;1.90;;
20557;SDS011;10437;48.156;11.530;2022-10-16T00:10:21;6.18;;;1.98;;
20557;SDS011;10437;48.156;11.530;2022-10-16T00:12:47;6.85;;;2.47;;
20557;SDS011;10437;48.156;11.530;2022-10-16T00:15:15;3.65;;;1.75;;
20557;SDS011;10437;48.156;11.530;2022-10-16T00:17:42;3.28;;;1.83;;
20557;SDS011;10437;48.156;11.530;2022-10-16T00:20:09;3.08;;;1.80;;
20557;SDS011;10437;48.156;11.530;2022-10-16T00:22:36;3.75;;;1.67;;
20557;SDS011;10437;48.156;11.530;2022-10-16T00:25:05;3.72;;;1.55;;
20557;SDS011;10437;48.156;11.530;2022-10-16T00:27:32;4.10;;;1.60;;
20557;SDS011;10437;48.156;11.530;2022-10-16T00:29:59;4.18;;;1.70;;
20557;SDS011;10437;48.156;11.530;2022-10-16T00:32:26;3.63;;;1.52;;
20557;SDS011;10437;48.156;11.530;2022-10-16T00:34:53;13.80;;;3.33;;
20557;SDS011;10437;48.156;11.530;2022-10-16T00:37:20;3.20;;;1.77;;
20557;SDS011;10437;48.156;11.530;2022-10-16T00:39:47;2.75;;;1.50;;
20557;SDS011;10437;48.156;11.530;2022-10-16T00:42:16;2.78;;;1.75;;
20557;SDS011;10437;48.156;11.530;2022-10-16T00:44:47;3.83;;;1.55;;
20557;SDS011;10437;48.156;11.530;2022-10-16T00:47:18;8.40;;;2.15;;
20557;SDS011;10437;48.156;11.530;2022-10-16T00:49:49;8.00;;;2.30;;
20557;SDS011;10437;48.156;11.530;2022-10-16T00:52:18;3.58;;;1.85;;
20557;SDS011;10437;48.156;11.530;2022-10-16T00:54:46;4.30;;;1.67;;
20557;SDS011;10437;48.156;11.530;2022-10-16T00:57:14;4.70;;;1.20;;
20557;SDS011;10437;48.156;11.530;2022-10-16T00:59:42;5.95;;;1.58;;
20557;SDS011;10437;48.156;11.530;2022-10-16T01:02:10;2.65;;;1.40;;
20557;SDS011;10437;48.156;11.530;2022-10-16T01:04:38;5.50;;;1.42;;
20557;SDS011;10437;48.156;11.530;2022-10-16T01:07:09;2.45;;;1.58;;
20557;SDS011;10437;48.156;11.530;2022-10-16T01:09:44;6.03;;;1.48;;
20557;SDS011;10437;48.156;11.530;2022-10-16T01:12:19;2.70;;;1.45;;
20557;SDS011;10437;48.156;11.530;2022-10-16T01:14:56;2.75;;;1.30;;
20557;SDS011;10437;48.156;11.530;2022-10-16T01:17:27;5.05;;;1.50;;
20557;SDS011;10437;48.156;11.530;2022-10-16T01:20:03;3.00;;;1.30;;
20557;SDS011;10437;48.156;11.530;2022-10-16T01:22:38;2.38;;;1.40;;
20557;SDS011;10437;48.156;11.530;2022-10-16T01:25:12;3.53;;;1.00;;
20557;SDS011;10437;48.156;11.530;2022-10-16T01:27:49;4.45;;;1.45;;
20557;SDS011;10437;48.156;11.530;2022-10-16T01:30:17;2.70;;;1.17;;
20557;SDS011;10437;48.156;11.530;2022-10-16T01:32:49;4.18;;;1.20;;
20557;SDS011;10437;48.156;11.530;2022-10-16T01:35:21;2.55;;;1.30;;
20557;SDS011;10437;48.156;11.530;2022-10-16T01:37:52;2.30;;;1.33;;
20557;SDS011;10437;48.156;11.530;2022-10-16T01:40:25;2.67;;;1.20;;
20557;SDS011;10437;48.156;11.530;2022-10-16T01:42:55;4.15;;;1.17;;
20557;SDS011;10437;48.156;11.530;2022-10-16T01:45:26;1.98;;;1.17;;
20557;SDS011;10437;48.156;11.530;2022-10-16T01:47:56;3.00;;;1.30;;
20557;SDS011;10437;48.156;11.530;2022-10-16T01:50:29;3.10;;;1.20;;
20557;SDS011;10437;48.156;11.530;2022-10-16T01:52:59;4.85;;;1.20;;
20557;SDS011;10437;48.156;11.530;2022-10-16T01:55:30;3.17;;;1.30;;
20557;SDS011;10437;48.156;11.530;2022-10-16T01:58:03;2.25;;;1.02;;
20557;SDS011;10437;48.156;11.530;2022-10-16T02:00:33;4.95;;;1.25;;
20557;SDS011;10437;48.156;11.530;2022-10-16T02:03:02;4.03;;;0.90;;
20557;SDS011;10437;48.156;11.530;2022-10-16T02:05:31;2.83;;;0.90;;
20557;SDS011;10437;48.156;11.530;2022-10-16T02:08:00;3.70;;;0.93;;
20557;SDS011;10437;48.156;11.530;2022-10-16T02:10:28;1.92;;;0.95;;
20557;SDS011;10437;48.156;11.530;2022-10-16T02:12:56;0.95;;;0.85;;
20557;SDS011;10437;48.156;11.530;2022-10-16T02:15:27;2.92;;;0.90;;
20557;SDS011;10437;48.156;11.530;2022-10-16T02:17:54;1.85;;;0.88;;
20557;SDS011;10437;48.156;11.530;2022-10-16T02:20:23;3.67;;;1.13;;
20557;SDS011;10437;48.156;11.530;2022-10-16T02:22:53;1.30;;;1.00;;
20557;SDS011;10437;48.156;11.530;2022-10-16T02:25:22;2.83;;;0.90;;
20557;SDS011;10437;48.156;11.530;2022-10-16T02:27:55;6.05;;;1.00;;
20557;SDS011;10437;48.156;11.530;2022-10-16T02:30:30;2.00;;;1.05;;
20557;SDS011;10437;48.156;11.530;2022-10-16T02:33:01;2.67;;;1.13;;
20557;SDS011;10437;48.156;11.530;2022-10-16T02:35:31;2.58;;;0.80;;
20557;SDS011;10437;48.156;11.530;2022-10-16T02:37:58;3.45;;;0.95;;
20557;SDS011;10437;48.156;11.530;2022-10-16T02:40:25;1.83;;;1.20;;
20557;SDS011;10437;48.156;11.530;2022-10-16T02:42:53;1.77;;;1.10;;
20557;SDS011;10437;48.156;11.530;2022-10-16T02:45:21;3.60;;;0.98;;
20557;SDS011;10437;48.156;11.530;2022-10-16T02:47:52;2.00;;;1.00;;
20557;SDS011;10437;48.156;11.530;2022-10-16T02:50:18;1.48;;;0.98;;
20557;SDS011;10437;48.156;11.530;2022-10-16T02:52:45;2.28;;;1.50;;
20557;SDS011;10437;48.156;11.530;2022-10-16T02:55:13;2.42;;;1.00;;
20557;SDS011;10437;48.156;11.530;2022-10-16T02:57:40;1.52;;;1.00;;
20557;SDS011;10437;48.156;11.530;2022-10-16T03:00:08;3.13;;;1.20;;
20557;SDS011;10437;48.156;11.530;2022-10-16T03:02:37;2.60;;;1.40;;
20557;SDS011;10437;48.156;11.530;2022-10-16T03:05:06;4.22;;;1.15;;
20557;SDS011;10437;48.156;11.530;2022-10-16T03:07:34;4.88;;;1.17;;
20557;SDS011;10437;48.156;11.530;2022-10-16T03:10:01;3.85;;;1.10;;
20557;SDS011;10437;48.156;11.530;2022-10-16T03:12:28;4.75;;;1.35;;
20557;SDS011;10437;48.156;11.530;2022-10-16T03:14:55;2.85;;;1.10;;
20557;SDS011;10437;48.156;11.530;2022-10-16T03:17:23;3.50;;;1.48;;
20557;SDS011;10437;48.156;11.530;2022-10-16T03:19:50;1.67;;;1.00;;
20557;SDS011;10437;48.156;11.530;2022-10-16T03:22:19;1.67;;;0.80;;
20557;SDS011;10437;48.156;11.530;2022-10-16T03:24:45;2.05;;;1.20;;
20557;SDS011;10437;48.156;11.530;2022-10-16T03:27:12;2.00;;;0.95;;
20557;SDS011;10437;48.156;11.530;2022-10-16T03:29:40;1.85;;;1.10;;
20557;SDS011;10437;48.156;11.530;2022-10-16T03:32:06;1.40;;;0.90;;
20557;SDS011;10437;48.156;11.530;2022-10-16T03:34:33;1.77;;;1.33;;
20557;SDS011;10437;48.156;11.530;2022-10-16T03:37:00;2.35;;;1.20;;
20557;SDS011;10437;48.156;11.530;2022-10-16T03:39:29;1.70;;;1.20;;
20557;SDS011;10437;48.156;11.530;2022-10-16T03:41:55;2.40;;;1.10;;
20557;SDS011;10437;48.156;11.530;2022-10-16T03:44:23;2.97;;;1.20;;
20557;SDS011;10437;48.156;11.530;2022-10-16T03:46:50;3.67;;;1.02;;
20557;SDS011;10437;48.156;11.530;2022-10-16T03:49:17;1.38;;;1.00;;
20557;SDS011;10437;48.156;11.530;2022-10-16T03:51:44;1.80;;;1.20;;
20557;SDS011;10437;48.156;11.530;2022-10-16T03:54:11;2.40;;;1.00;;
20557;SDS011;10437;48.156;11.530;2022-10-16T03:56:39;1.25;;;1.00;;
20557;SDS011;10437;48.156;11.530;2022-10-16T03:59:06;2.08;;;1.27;;
20557;SDS011;10437;48.156;11.530;2022-10-16T04:01:33;1.92;;;1.00;;
20557;SDS011;10437;48.156;11.530;2022-10-16T04:04:00;2.45;;;1.08;;
20557;SDS011;10437;48.156;11.530;2022-10-16T04:06:27;1.70;;;0.82;;
20557;SDS011;10437;48.156;11.530;2022-10-16T04:08:55;2.22;;;1.08;;
20557;SDS011;10437;48.156;11.530;2022-10-16T04:11:22;3.90;;;1.13;;
20557;SDS011;10437;48.156;11.530;2022-10-16T04:13:50;6.35;;;1.10;;
20557;SDS011;10437;48.156;11.530;2022-10-16T04:16:17;3.35;;;1.20;;
20557;SDS011;10437;48.156;11.530;2022-10-16T04:18:44;1.55;;;1.15;;
20557;SDS011;10437;48.156;11.530;2022-10-16T04:21:11;4.53;;;1.27;;
20557;SDS011;10437;48.156;11.530;2022-10-16T04:23:38;1.75;;;1.20;;
20557;SDS011;10437;48.156;11.530;2022-10-16T04:26:05;3.58;;;1.20;;
20557;SDS011;10437;48.156;11.530;2022-10-16T04:28:32;3.50;;;1.10;;
20557;SDS011;10437;48.156;11.530;2022-10-16T04:31:00;1.27;;;1.00;;
20557;SDS011;10437;48.156;11.530;2022-10-16T04:33:30;4.47;;;1.40;;
20557;SDS011;10437;48.156;11.530;2022-10-16T04:35:57;1.60;;;1.23;;
20557;SDS011;10437;48.156;11.530;2022-10-16T04:38:24;3.25;;;1.40;;
20557;SDS011;10437;48.156;11.530;2022-10-16T04:40:51;3.63;;;1.35;;
20557;SDS011;10437;48.156;11.530;2022-10-16T04:43:18;2.15;;;1.13;;
20557;SDS011;10437;48.156;11.530;2022-10-16T04:45:46;3.60;;;1.42;;
20557;SDS011;10437;48.156;11.530;2022-10-16T04:48:16;5.60;;;1.58;;
20557;SDS011;10437;48.156;11.530;2022-10-16T04:50:43;2.75;;;1.50;;
20557;SDS011;10437;48.156;11.530;2022-10-16T04:53:10;2.78;;;1.45;;
20557;SDS011;10437;48.156;11.530;2022-10-16T04:55:38;2.95;;;1.40;;
20557;SDS011;10437;48.156;11.530;2022-10-16T04:58:04;2.08;;;1.35;;
20557;SDS011;10437;48.156;11.530;2022-10-16T05:00:32;2.83;;;1.30;;
20557;SDS011;10437;48.156;11.530;2022-10-16T05:02:59;1.85;;;1.00;;
20557;SDS011;10437;48.156;11.530;2022-10-16T05:05:27;3.15;;;1.40;;
20557;SDS011;10437;48.156;11.530;2022-10-16T05:07:54;2.92;;;1.48;;
20557;SDS011;10437;48.156;11.530;2022-10-16T05:10:21;1.50;;;1.25;;
20557;SDS011;10437;48.156;11.530;2022-10-16T05:12:48;1.73;;;1.08;;
20557;SDS011;10437;48.156;11.530;2022-10-16T05:15:16;4.80;;;1.33;;
20557;SDS011;10437;48.156;11.530;2022-10-16T05:17:43;1.58;;;1.13;;
20557;SDS011;10437;48.156;11.530;2022-10-16T05:20:10;7.20;;;1.40;;
20557;SDS011;10437;48.156;11.530;2022-10-16T05:22:39;2.83;;;1.20;;
20557;SDS011;10437;48.156;11.530;2022-10-16T05:25:06;5.20;;;1.30;;
20557;SDS011;10437;48.156;11.530;2022-10-16T05:27:33;2.65;;;1.38;;
20557;SDS011;10437;48.156;11.530;2022-10-16T05:30:00;1.48;;;1.25;;
20557;SDS011;10437;48.156;11.530;2022-10-16T05:32:27;2.17;;;1.30;;
20557;SDS011;10437;48.156;11.530;2022-10-16T05:34:54;2.33;;;1.30;;
20557;SDS011;10437;48.156;11.530;2022-10-16T05:37:21;1.70;;;1.25;;
20557;SDS011;10437;48.156;11.530;2022-10-16T05:39:50;3.00;;;1.52;;
20557;SDS011;10437;48.156;11.530;2022-10-16T05:42:16;1.88;;;1.20;;
20557;SDS011;10437;48.156;11.530;2022-10-16T05:44:43;6.55;;;1.17;;
20557;SDS011;10437;48.156;11.530;2022-10-16T05:47:12;2.22;;;1.30;;
20557;SDS011;10437;48.156;11.530;2022-10-16T05:49:39;1.92;;;1.05;;
20557;SDS011;10437;48.156;11.530;2022-10-16T05:52:06;1.45;;;1.15;;
20557;SDS011;10437;48.156;11.530;2022-10-16T05:54:33;1.55;;;0.90;;
20557;SDS011;10437;48.156;11.530;2022-10-16T05:57:01;3.25;;;1.20;;
20557;SDS011;10437;48.156;11.530;2022-10-16T05:59:30;3.15;;;1.10;;
20557;SDS011;10437;48.156;11.530;2022-10-16T06:01:57;2.70;;;1.33;;
20557;SDS011;10437;48.156;11.530;2022-10-16T06:04:24;4.43;;;1.30;;
20557;SDS011;10437;48.156;11.530;2022-10-16T06:06:52;3.72;;;1.40;;
20557;SDS011;10437;48.156;11.530;2022-10-16T06:09:19;2.28;;;1.20;;
20557;SDS011;10437;48.156;11.530;2022-10-16T06:11:46;2.08;;;1.20;;
20557;SDS011;10437;48.156;11.530;2022-10-16T06:14:14;3.30;;;1.25;;
20557;SDS011;10437;48.156;11.530;2022-10-16T06:16:41;4.05;;;1.60;;
20557;SDS011;10437;48.156;11.530;2022-10-16T06:19:08;4.95;;;1.50;;
20557;SDS011;10437;48.156;11.530;2022-10-16T06:21:35;2.70;;;1.40;;
20557;SDS011;10437;48.156;11.530;2022-10-16T06:24:03;6.05;;;1.63;;
20557;SDS011;10437;48.156;11.530;2022-10-16T06:26:30;2.60;;;1.40;;
20557;SDS011;10437;48.156;11.530;2022-10-16T06:28:58;3.13;;;1.35;;
20557;SDS011;10437;48.156;11.530;2022-10-16T06:31:27;3.45;;;1.27;;
20557;SDS011;10437;48.156;11.530;2022-10-16T06:33:55;5.45;;;1.35;;
20557;SDS011;10437;48.156;11.530;2022-10-16T06:36:23;2.70;;;1.70;;
20557;SDS011;10437;48.156;11.530;2022-10-16T06:38:50;3.15;;;1.77;;
20557;SDS011;10437;48.156;11.530;2022-10-16T06:41:18;4.38;;;1.73;;
20557;SDS011;10437;48.156;11.530;2022-10-16T06:43:46;3.72;;;1.73;;
20557;SDS011;10437;48.156;11.530;2022-10-16T06:46:14;4.72;;;1.38;;
20557;SDS011;10437;48.156;11.530;2022-10-16T06:48:43;4.82;;;1.80;;
20557;SDS011;10437;48.156;11.530;2022-10-16T06:51:11;3.75;;;1.90;;
20557;SDS011;10437;48.156;11.530;2022-10-16T06:53:41;4.03;;;1.88;;
20557;SDS011;10437;48.156;11.530;2022-10-16T06:56:10;4.93;;;2.15;;
20557;SDS011;10437;48.156;11.530;2022-10-16T06:58:38;6.57;;;2.08;;
20557;SDS011;10437;48.156;11.530;2022-10-16T07:01:05;3.53;;;1.90;;
20557;SDS011;10437;48.156;11.530;2022-10-16T07:03:32;4.20;;;1.92;;
20557;SDS011;10437;48.156;11.530;2022-10-16T07:06:02;4.88;;;1.95;;
20557;SDS011;10437;48.156;11.530;2022-10-16T07:08:30;3.40;;;1.75;;
20557;SDS011;10437;48.156;11.530;2022-10-16T07:10:58;3.80;;;2.20;;
20557;SDS011;10437;48.156;11.530;2022-10-16T07:13:26;3.53;;;1.90;;
20557;SDS011;10437;48.156;11.530;2022-10-16T07:15:53;3.30;;;1.95;;
20557;SDS011;10437;48.156;11.530;2022-10-16T07:18:20;3.33;;;1.60;;
20557;SDS011;10437;48.156;11.530;2022-10-16T07:20:51;4.80;;;1.88;;
20557;SDS011;10437;48.156;11.530;2022-10-16T07:23:19;4.63;;;1.80;;
20557;SDS011;10437;48.156;11.530;2022-10-16T07:25:52;4.30;;;1.73;;
20557;SDS011;10437;48.156;11.530;2022-10-16T07:28:20;3.20;;;1.77;;
20557;SDS011;10437;48.156;11.530;2022-10-16T07:30:47;4.13;;;1.88;;
20557;SDS011;10437;48.156;11.530;2022-10-16T07:33:14;3.47;;;1.75;;
20557;SDS011;10437;48.156;11.530;2022-10-16T07:35:47;3.85;;;2.17;;
20557;SDS011;10437;48.156;11.530;2022-10-16T07:38:14;3.40;;;1.58;;
20557;SDS011;10437;48.156;11.530;2022-10-16T07:40:43;3.17;;;1.60;;
20557;SDS011;10437;48.156;11.530;2022-10-16T07:43:10;5.70;;;1.70;;
20557;SDS011;10437;48.156;11.530;2022-10-16T07:45:40;3.42;;;1.73;;
20557;SDS011;10437;48.156;11.530;2022-10-16T07:48:13;5.35;;;1.83;;
20557;SDS011;10437;48.156;11.530;2022-10-16T07:50:40;5.47;;;1.98;;
20557;SDS011;10437;48.156;11.530;2022-10-16T07:53:07;6.82;;;2.47;;
20557;SDS011;10437;48.156;11.530;2022-10-16T07:55:34;3.30;;;1.80;;
20557;SDS011;10437;48.156;11.530;2022-10-16T07:58:03;3.25;;;1.58;;
20557;SDS011;10437;48.156;11.530;2022-10-16T08:00:30;5.07;;;1.40;;
20557;SDS011;10437;48.156;11.530;2022-10-16T08:02:57;3.58;;;1.73;;
20557;SDS011;10437;48.156;11.530;2022-10-16T08:05:25;2.85;;;1.50;;
20557;SDS011;10437;48.156;11.530;2022-10-16T08:07:52;2.80;;;1.40;;
20557;SDS011;10437;48.156;11.530;2022-10-16T08:10:20;2.72;;;1.48;;
20557;SDS011;10437;48.156;11.530;2022-10-16T08:12:48;2.42;;;1.67;;
20557;SDS011;10437;48.156;11.530;2022-10-16T08:15:16;2.38;;;1.30;;
20557;SDS011;10437;48.156;11.530;2022-10-16T08:17:43;2.15;;;1.45;;
20557;SDS011;10437;48.156;11.530;2022-10-16T08:20:10;2.90;;;1.67;;
20557;SDS011;10437;48.156;11.530;2022-10-16T08:22:37;3.20;;;1.65;;
20557;SDS011;10437;48.156;11.530;2022-10-16T08:25:05;2.70;;;1.60;;
20557;SDS011;10437;48.156;11.530;2022-10-16T08:27:32;3.17;;;1.20;;
20557;SDS011;10437;48.156;11.530;2022-10-16T08:29:59;2.28;;;1.60;;
20557;SDS011;10437;48.156;11.530;2022-10-16T08:32:28;1.92;;;1.17;;
20557;SDS011;10437;48.156;11.530;2022-10-16T08:34:55;2.22;;;1.33;;
20557;SDS011;10437;48.156;11.530;2022-10-16T08:37:22;4.35;;;1.20;;
20557;SDS011;10437;48.156;11.530;2022-10-16T08:39:49;2.72;;;1.63;;
20557;SDS011;10437;48.156;11.530;2022-10-16T08:42:22;1.92;;;1.30;;
20557;SDS011;10437;48.156;11.530;2022-10-16T08:45:07;2.53;;;1.73;;
20557;SDS011;10437;48.156;11.530;2022-10-16T08:47:53;3.45;;;1.40;;
20557;SDS011;10437;48.156;11.530;2022-10-16T08:50:27;1.63;;;1.35;;
20557;SDS011;10437;48.156;11.530;2022-10-16T08:52:56;2.17;;;1.33;;
20557;SDS011;10437;48.156;11.530;2022-10-16T08:55:34;5.70;;;1.50;;
20557;SDS011;10437;48.156;11.530;2022-10-16T08:58:11;2.20;;;1.40;;
20557;SDS011;10437;48.156;11.530;2022-10-16T09:00:39;1.75;;;1.30;;
20557;SDS011;10437;48.156;11.530;2022-10-16T09:03:14;3.58;;;1.77;;
20557;SDS011;10437;48.156;11.530;2022-10-16T09:05:57;3.78;;;1.77;;
20557;SDS011;10437;48.156;11.530;2022-10-16T09:08:45;5.63;;;1.50;;
20557;SDS011;10437;48.156;11.530;2022-10-16T09:11:20;3.28;;;2.30;;
20557;SDS011;10437;48.156;11.530;2022-10-16T09:13:58;3.75;;;2.00;;
20557;SDS011;10437;48.156;11.530;2022-10-16T09:16:33;4.43;;;1.60;;
20557;SDS011;10437;48.156;11.530;2022-10-16T09:19:10;2.22;;;1.50;;
20557;SDS011;10437;48.156;11.530;2022-10-16T09:21:45;1.95;;;1.20;;
20557;SDS011;10437;48.156;11.530;2022-10-16T09:24:13;3.90;;;1.45;;
20557;SDS011;10437;48.156;11.530;2022-10-16T09:26:41;2.20;;;1.40;;
20557;SDS011;10437;48.156;11.530;2022-10-16T09:29:09;2.42;;;1.38;;
20557;SDS011;10437;48.156;11.530;2022-10-16T09:31:39;2.42;;;1.63;;
20557;SDS011;10437;48.156;11.530;2022-10-16T09:34:20;2.70;;;1.70;;
20557;SDS011;10437;48.156;11.530;2022-10-16T09:36:51;1.48;;;1.38;;
20557;SDS011;10437;48.156;11.530;2022-10-16T09:39:18;1.98;;;1.40;;
20557;SDS011;10437;48.156;11.530;2022-10-16T09:41:45;2.53;;;1.42;;
20557;SDS011;10437;48.156;11.530;2022-10-16T09:44:17;2.17;;;1.50;;
20557;SDS011;10437;48.156;11.530;2022-10-16T09:47:00;4.25;;;1.80;;
20557;SDS011;10437;48.156;11.530;2022-10-16T09:49:29;7.40;;;1.60;;
20557;SDS011;10437;48.156;11.530;2022-10-16T09:52:02;2.75;;;1.98;;
20557;SDS011;10437;48.156;11.530;2022-10-16T09:54:30;3.88;;;1.70;;
20557;SDS011;10437;48.156;11.530;2022-10-16T09:57:03;3.17;;;1.50;;
20557;SDS011;10437;48.156;11.530;2022-10-16T09:59:31;3.40;;;2.22;;
20557;SDS011;10437;48.156;11.530;2022-10-16T10:02:01;4.07;;;1.80;;
20557;SDS011;10437;48.156;11.530;2022-10-16T10:04:38;3.22;;;1.35;;
20557;SDS011;10437;48.156;11.530;2022-10-16T10:07:14;1.92;;;1.40;;
20557;SDS011;10437;48.156;11.530;2022-10-16T10:09:44;3.38;;;1.65;;
20557;SDS011;10437;48.156;11.530;2022-10-16T10:12:19;2.10;;;1.40;;
20557;SDS011;10437;48.156;11.530;2022-10-16T10:14:47;3.53;;;1.48;;
20557;SDS011;10437;48.156;11.530;2022-10-16T10:17:17;4.32;;;1.85;;
20557;SDS011;10437;48.156;11.530;2022-10-16T10:19:48;3.35;;;1.65;;
20557;SDS011;10437;48.156;11.530;2022-10-16T10:22:17;4.50;;;1.45;;
20557;SDS011;10437;48.156;11.530;2022-10-16T10:24:54;3.10;;;1.52;;
20557;SDS011;10437;48.156;11.530;2022-10-16T10:27:39;4.25;;;1.40;;
20557;SDS011;10437;48.156;11.530;2022-10-16T10:30:18;1.73;;;1.20;;
20557;SDS011;10437;48.156;11.530;2022-10-16T10:32:52;2.33;;;1.30;;
20557;SDS011;10437;48.156;11.530;2022-10-16T10:35:32;4.25;;;1.63;;
20557;SDS011;10437;48.156;11.530;2022-10-16T10:38:12;4.38;;;1.38;;
20557;SDS011;10437;48.156;11.530;2022-10-16T10:40:49;5.97;;;1.55;;
20557;SDS011;10437;48.156;11.530;2022-10-16T10:43:27;1.08;;;0.95;;
20557;SDS011;10437;48.156;11.530;2022-10-16T10:46:08;1.50;;;1.15;;
20557;SDS011;10437;48.156;11.530;2022-10-16T10:48:46;2.25;;;1.00;;
20557;SDS011;10437;48.156;11.530;2022-10-16T10:51:27;1.42;;;1.13;;
20557;SDS011;10437;48.156;11.530;2022-10-16T10:54:03;1.73;;;1.30;;
20557;SDS011;10437;48.156;11.530;2022-10-16T10:56:42;2.35;;;1.50;;
20557;SDS011;10437;48.156;11.530;2022-10-16T10:59:16;3.08;;;1.40;;
20557;SDS011;10437;48.156;11.530;2022-10-16T11:02:10;1.77;;;1.23;;
20557;SDS011;10437;48.156;11.530;2022-10-16T11:07:38;3.38;;;1.40;;
20557;SDS011;10437;48.156;11.530;2022-10-16T11:10:09;2.13;;;1.00;;
20557;SDS011;10437;48.156;11.530;2022-10-16T11:12:41;3.00;;;1.30;;
20557;SDS011;10437;48.156;11.530;2022-10-16T11:15:12;2.38;;;1.17;;
20557;SDS011;10437;48.156;11.530;2022-10-16T11:17:45;2.88;;;0.95;;
20557;SDS011;10437;48.156;11.530;2022-10-16T11:20:19;1.10;;;1.00;;
20557;SDS011;10437;48.156;11.530;2022-10-16T11:22:51;1.00;;;0.90;;
20557;SDS011;10437;48.156;11.530;2022-10-16T11:25:22;2.35;;;1.10;;
20557;SDS011;10437;48.156;11.530;2022-10-16T11:27:54;1.30;;;1.00;;
20557;SDS011;10437;48.156;11.530;2022-10-16T11:30:27;1.05;;;0.85;;
20557;SDS011;10437;48.156;11.530;2022-10-16T11:33:00;1.02;;;0.90;;
20557;SDS011;10437;48.156;11.530;2022-10-16T11:35:38;1.10;;;0.80;;
20557;SDS011;10437;48.156;11.530;2022-10-16T11:38:12;1.50;;;0.90;;
20557;SDS011;10437;48.156;11.530;2022-10-16T11:40:47;1.05;;;0.80;;
20557;SDS011;10437;48.156;11.530;2022-10-16T11:43:19;2.30;;;0.70;;
20557;SDS011;10437;48.156;11.530;2022-10-16T11:45:51;2.42;;;0.80;;
20557;SDS011;10437;48.156;11.530;2022-10-16T11:48:23;3.58;;;0.80;;
20557;SDS011;10437;48.156;11.530;2022-10-16T11:50:56;4.80;;;1.08;;
20557;SDS011;10437;48.156;11.530;2022-10-16T11:53:34;1.05;;;0.70;;
20557;SDS011;10437;48.156;11.530;2022-10-16T11:56:11;1.13;;;0.70;;
20557;SDS011;10437;48.156;11.530;2022-10-16T11:58:41;2.20;;;0.90;;
20557;SDS011;10437;48.156;11.530;2022-10-16T12:01:18;1.50;;;0.90;;
20557;SDS011;10437;48.156;11.530;2022-10-16T12:03:56;2.08;;;0.70;;
20557;SDS011;10437;48.156;11.530;2022-10-16T12:06:31;0.80;;;0.80;;
20557;SDS011;10437;48.156;11.530;2022-10-16T12:09:03;1.77;;;0.80;;
20557;SDS011;10437;48.156;11.530;2022-10-16T12:11:32;0.98;;;0.68;;
20557;SDS011;10437;48.156;11.530;2022-10-16T12:14:06;1.25;;;0.93;;
20557;SDS011;10437;48.156;11.530;2022-10-16T12:16:50;1.60;;;1.00;;
20557;SDS011;10437;48.156;11.530;2022-10-16T12:19:19;1.55;;;1.08;;
20557;SDS011;10437;48.156;11.530;2022-10-16T12:21:47;1.10;;;1.00;;
20557;SDS011;10437;48.156;11.530;2022-10-16T12:24:26;1.50;;;0.90;;
20557;SDS011;10437;48.156;11.530;2022-10-16T12:26:58;1.05;;;0.90;;
20557;SDS011;10437;48.156;11.530;2022-10-16T12:29:28;1.17;;;0.80;;
20557;SDS011;10437;48.156;11.530;2022-10-16T12:31:59;1.30;;;1.05;;
20557;SDS011;10437;48.156;11.530;2022-10-16T12:34:28;1.40;;;0.98;;
20557;SDS011;10437;48.156;11.530;2022-10-16T12:37:07;4.10;;;0.75;;
20557;SDS011;10437;48.156;11.530;2022-10-16T12:39:39;1.17;;;0.80;;
20557;SDS011;10437;48.156;11.530;2022-10-16T12:42:19;1.30;;;0.90;;
20557;SDS011;10437;48.156;11.530;2022-10-16T12:44:49;3.60;;;1.02;;
20557;SDS011;10437;48.156;11.530;2022-10-16T12:47:23;1.52;;;0.80;;
20557;SDS011;10437;48.156;11.530;2022-10-16T12:50:01;2.10;;;1.10;;
20557;SDS011;10437;48.156;11.530;2022-10-16T12:52:34;1.10;;;0.85;;
20557;SDS011;10437;48.156;11.530;2022-10-16T12:55:04;3.67;;;0.90;;
20557;SDS011;10437;48.156;11.530;2022-10-16T12:57:42;2.53;;;0.90;;
20557;SDS011;10437;48.156;11.530;2022-10-16T13:00:23;1.25;;;0.77;;
20557;SDS011;10437;48.156;11.530;2022-10-16T13:03:20;2.65;;;1.00;;
20557;SDS011;10437;48.156;11.530;2022-10-16T13:06:11;1.05;;;0.70;;
20557;SDS011;10437;48.156;11.530;2022-10-16T13:08:50;5.88;;;0.80;;
20557;SDS011;10437;48.156;11.530;2022-10-16T13:11:32;0.65;;;0.60;;
20557;SDS011;10437;48.156;11.530;2022-10-16T13:14:15;0.63;;;0.50;;
20557;SDS011;10437;48.156;11.530;2022-10-16T13:16:57;1.55;;;0.68;;
20557;SDS011;10437;48.156;11.530;2022-10-16T13:19:31;0.70;;;0.60;;
20557;SDS011;10437;48.156;11.530;2022-10-16T13:22:05;1.77;;;0.70;;
20557;SDS011;10437;48.156;11.530;2022-10-16T13:24:45;0.98;;;0.65;;
20557;SDS011;10437;48.156;11.530;2022-10-16T13:27:25;5.32;;;0.70;;
20557;SDS011;10437;48.156;11.530;2022-10-16T13:30:01;1.77;;;0.63;;
20557;SDS011;10437;48.156;11.530;2022-10-16T13:32:36;1.00;;;0.52;;
20557;SDS011;10437;48.156;11.530;2022-10-16T13:35:15;1.77;;;0.60;;
20557;SDS011;10437;48.156;11.530;2022-10-16T13:37:46;2.67;;;0.60;;
20557;SDS011;10437;48.156;11.530;2022-10-16T13:40:17;1.67;;;0.60;;
20557;SDS011;10437;48.156;11.530;2022-10-16T13:42:48;1.00;;;0.60;;
20557;SDS011;10437;48.156;11.530;2022-10-16T13:45:19;2.10;;;0.45;;
20557;SDS011;10437;48.156;11.530;2022-10-16T13:47:47;0.68;;;0.63;;
20557;SDS011;10437;48.156;11.530;2022-10-16T13:50:14;0.95;;;0.52;;
20557;SDS011;10437;48.156;11.530;2022-10-16T13:52:43;0.68;;;0.50;;
20557;SDS011;10437;48.156;11.530;2022-10-16T13:55:10;2.72;;;0.65;;
20557;SDS011;10437;48.156;11.530;2022-10-16T13:57:38;1.92;;;0.60;;
20557;SDS011;10437;48.156;11.530;2022-10-16T14:00:18;0.75;;;0.50;;
20557;SDS011;10437;48.156;11.530;2022-10-16T14:02:50;2.25;;;0.60;;
20557;SDS011;10437;48.156;11.530;2022-10-16T14:05:21;0.60;;;0.40;;
20557;SDS011;10437;48.156;11.530;2022-10-16T14:07:49;2.17;;;0.60;;
20557;SDS011;10437;48.156;11.530;2022-10-16T14:10:19;4.25;;;2.58;;
20557;SDS011;10437;48.156;11.530;2022-10-16T14:12:54;5.57;;;3.45;;
20557;SDS011;10437;48.156;11.530;2022-10-16T14:15:26;2.97;;;1.30;;
20557;SDS011;10437;48.156;11.530;2022-10-16T14:17:53;1.10;;;1.00;;
20557;SDS011;10437;48.156;11.530;2022-10-16T14:20:22;0.98;;;0.63;;
20557;SDS011;10437;48.156;11.530;2022-10-16T14:23:02;1.38;;;0.60;;
20557;SDS011;10437;48.156;11.530;2022-10-16T14:25:30;0.82;;;0.40;;
20557;SDS011;10437;48.156;11.530;2022-10-16T14:27:59;0.95;;;0.70;;
20557;SDS011;10437;48.156;11.530;2022-10-16T14:30:29;2.10;;;0.55;;
20557;SDS011;10437;48.156;11.530;2022-10-16T14:32:57;1.83;;;0.60;;
20557;SDS011;10437;48.156;11.530;2022-10-16T14:35:26;0.60;;;0.40;;
20557;SDS011;10437;48.156;11.530;2022-10-16T14:37:56;1.95;;;0.77;;
20557;SDS011;10437;48.156;11.530;2022-10-16T14:40:24;0.85;;;0.60;;
20557;SDS011;10437;48.156;11.530;2022-10-16T14:42:52;1.25;;;0.98;;
20557;SDS011;10437;48.156;11.530;2022-10-16T14:45:20;2.22;;;0.80;;
20557;SDS011;10437;48.156;11.530;2022-10-16T14:47:51;2.25;;;1.00;;
20557;SDS011;10437;48.156;11.530;2022-10-16T14:50:20;1.30;;;0.73;;
20557;SDS011;10437;48.156;11.530;2022-10-16T14:52:47;5.63;;;1.02;;
20557;SDS011;10437;48.156;11.530;2022-10-16T14:55:14;1.90;;;0.73;;